Time;durP1;ratioP1;P1;durP2;ratioP2;P2;SDS_P1;SDS_P2;PMS_P1;PMS_P2;Temp;Humidity;BMP_temperature;BMP_pressure;BME280_temperature;BME280_humidity;BME280_pressure;Samples;Min_cycle;Max_cycle;Signal;HPM_P1;HPM_P2
2021/12/05 00:21:37;;;;;;;13.55;12.25;;;;;;;9.61;86.05;99001.41;5068891;28;20914;-57
2021/12/05 00:24:10;;;;;;;13.70;10.60;;;;;;;9.66;85.12;99006.56;5092541;28;20297;-57
2021/12/05 00:26:38;;;;;;;10.10;8.83;;;;;;;9.56;84.35;99003.03;5092387;28;20223;-57
2021/12/05 00:29:14;;;;;;;10.43;8.80;;;;;;;9.47;84.77;98997.81;5092454;28;20584;-57
2021/12/05 00:31:56;;;;;;;9.90;8.90;;;;;;;9.46;84.76;98998.63;5092391;28;20200;-57
2021/12/05 00:40:34;;;;;;;12.20;9.30;;;;;;;9.34;85.06;98993.34;5091994;28;20190;-57
2021/12/05 00:46:02;;;;;;;12.80;9.47;;;;;;;9.38;85.21;99002.81;5091911;28;20183;-57
2021/12/05 00:48:57;;;;;;;12.30;9.43;;;;;;;9.37;85.17;98995.94;5092078;28;20217;-57
2021/12/05 01:03:10;;;;;;;9.50;8.43;;;;;;;9.18;85.80;98983.72;5053795;28;20190;-57
2021/12/05 01:14:00;;;;;;;10.47;6.93;;;;;;;9.14;85.24;98979.41;5071031;28;20194;-57
2021/12/05 01:16:30;;;;;;;8.80;7.13;;;;;;;9.13;85.07;98985.38;5071428;28;20253;-57
2021/12/05 01:18:57;;;;;;;7.10;5.97;;;;;;;9.01;84.61;98980.09;5071044;28;20188;-57
2021/12/05 01:21:25;;;;;;;6.33;5.73;;;;;;;9.04;84.84;98986.09;5071188;28;20231;-57
2021/12/05 01:23:59;;;;;;;6.67;5.93;;;;;;;8.88;85.19;98987.59;5070915;28;20240;-57
2021/12/05 01:26:31;;;;;;;7.17;6.47;;;;;;;8.65;85.36;98958.22;5070894;28;20195;-56
2021/12/05 01:29:17;;;;;;;6.43;5.70;;;;;;;8.68;86.21;98986.44;5070806;28;20223;-57
2021/12/05 01:31:55;;;;;;;6.90;5.73;;;;;;;8.69;86.60;98985.59;5071033;28;20193;-57
2021/12/05 01:37:24;;;;;;;7.30;6.43;;;;;;;8.87;86.40;98987.59;5059448;28;20524;-57
2021/12/05 01:40:09;;;;;;;7.17;6.47;;;;;;;8.90;85.81;98982.47;5070678;28;20205;-57
2021/12/05 01:54:15;;;;;;;8.30;6.03;;;;;;;8.72;86.38;98972.84;5108484;27;20535;-56
2021/12/05 01:57:04;;;;;;;7.30;6.20;;;;;;;8.66;86.54;98957.38;5108340;28;20589;-56
2021/12/05 01:59:51;;;;;;;7.50;6.53;;;;;;;8.82;86.31;98967.00;5108382;28;20255;-56
2021/12/05 02:08:28;;;;;;;6.80;6.03;;;;;;;8.90;85.88;98952.59;5108032;28;20194;-56
2021/12/05 02:11:09;;;;;;;7.17;6.40;;;;;;;8.90;86.02;98959.44;5107751;28;20196;-56
2021/12/05 02:30:16;;;;;;;6.40;5.80;;;;;;;8.77;86.56;98960.09;5107701;28;20189;-56
2021/12/05 02:33:09;;;;;;;6.50;5.90;;;;;;;8.73;86.51;98954.09;5107387;28;20316;-56
2021/12/05 02:38:50;;;;;;;9.07;7.00;;;;;;;8.66;87.17;98939.47;5107162;28;20193;-56
2021/12/05 02:41:19;;;;;;;7.20;6.50;;;;;;;8.58;87.17;98942.75;5107250;28;20624;-56
2021/12/05 02:43:49;;;;;;;6.77;6.13;;;;;;;8.63;87.48;98936.84;5106985;28;20196;-57
2021/12/05 02:46:20;;;;;;;9.97;8.23;;;;;;;8.70;87.39;98942.94;5107483;28;20192;-56
2021/12/05 02:48:47;;;;;;;13.03;9.27;;;;;;;8.69;87.34;98931.81;5107319;28;20198;-57
2021/12/05 02:51:17;;;;;;;11.83;9.27;;;;;;;8.54;87.59;98934.13;5107106;28;20564;-57
2021/12/05 02:53:49;;;;;;;11.07;9.90;;;;;;;8.42;88.42;98933.09;5106084;28;21018;-56
2021/12/05 02:56:18;;;;;;;10.00;8.93;;;;;;;8.57;87.93;98934.19;5107177;28;20277;-57
2021/12/05 02:58:50;;;;;;;9.83;8.73;;;;;;;8.71;87.54;98927.56;5107000;28;20674;-56
2021/12/05 03:01:22;;;;;;;11.50;9.43;;;;;;;8.72;86.94;98921.63;5106828;28;20194;-56
2021/12/05 03:03:52;;;;;;;10.93;9.60;;;;;;;8.78;86.89;98918.28;5101201;28;20230;-56
2021/12/05 03:06:23;;;;;;;13.67;10.10;;;;;;;8.61;86.56;98887.31;5093442;28;20197;-56
2021/12/05 03:08:55;;;;;;;13.73;9.57;;;;;;;8.79;86.97;98927.69;5093318;28;20218;-56
2021/12/05 03:11:24;;;;;;;14.50;11.27;;;;;;;8.75;86.86;98908.00;5093204;28;20664;-55
2021/12/05 03:13:51;;;;;;;14.13;12.05;;;;;;;8.92;86.77;98929.59;5092282;28;20447;-56
2021/12/05 03:16:19;;;;;;;18.17;13.07;;;;;;;8.94;86.44;98937.28;5092905;28;20190;-56
2021/12/05 03:18:46;;;;;;;18.50;12.13;;;;;;;8.99;86.11;98936.50;5092959;28;20661;-56
2021/12/05 03:21:14;;;;;;;13.03;10.93;;;;;;;9.00;86.30;98932.25;5092737;28;20188;-56
2021/12/05 03:23:46;;;;;;;18.13;13.83;;;;;;;8.95;86.21;98923.66;5092758;28;20193;-56
2021/12/05 03:26:18;;;;;;;18.67;12.27;;;;;;;8.93;86.40;98926.16;5092950;28;20193;-56
2021/12/05 03:28:45;;;;;;;18.83;11.60;;;;;;;8.93;86.83;98931.28;5092761;28;20676;-56
2021/12/05 03:31:12;;;;;;;17.50;11.83;;;;;;;8.90;86.93;98932.13;5092642;28;20190;-56
2021/12/05 03:33:39;;;;;;;15.13;10.80;;;;;;;8.93;86.52;98926.16;5092886;28;20216;-55
2021/12/05 03:36:09;;;;;;;14.17;11.10;;;;;;;8.84;87.09;98926.91;5092667;28;20202;-56
2021/12/05 03:38:38;;;;;;;16.30;11.43;;;;;;;8.84;87.03;98919.22;5092581;28;20201;-57
2021/12/05 03:41:05;;;;;;;18.73;11.77;;;;;;;8.78;87.13;98923.41;5092760;28;20547;-56
2021/12/05 03:43:34;;;;;;;19.03;12.43;;;;;;;8.83;87.23;98926.91;5092497;28;20668;-56
2021/12/05 03:46:02;;;;;;;16.50;11.50;;;;;;;8.81;87.18;98921.78;5092336;28;20193;-57
2021/12/05 03:48:33;;;;;;;22.13;13.30;;;;;;;8.82;87.22;98922.59;5092535;28;20562;-57
2021/12/05 03:51:01;;;;;;;18.83;12.60;;;;;;;8.83;87.33;98929.47;5092347;28;20691;-56
2021/12/05 03:53:28;;;;;;;16.37;12.23;;;;;;;8.85;87.12;98927.78;5091966;28;20226;-57
2021/12/05 03:55:57;;;;;;;17.37;10.73;;;;;;;8.87;86.64;98929.50;5092186;28;20570;-57
2021/12/05 03:58:25;;;;;;;11.17;8.87;;;;;;;8.87;86.68;98939.75;5092147;28;20197;-57
2021/12/05 04:00:57;;;;;;;14.27;9.50;;;;;;;8.83;86.41;98944.81;5092566;28;20216;-57
2021/12/05 04:03:26;;;;;;;17.20;10.73;;;;;;;8.60;87.25;98938.50;5092245;28;20561;-57
2021/12/05 04:05:54;;;;;;;17.10;10.40;;;;;;;8.59;87.74;98940.22;5092192;28;20687;-57
2021/12/05 04:08:23;;;;;;;23.27;13.30;;;;;;;8.28;88.92;98945.69;5092030;28;20685;-57
2021/12/05 04:10:53;;;;;;;25.03;13.27;;;;;;;8.26;89.63;98958.44;5091876;28;20189;-56
2021/12/05 04:13:20;;;;;;;22.33;12.07;;;;;;;8.30;90.58;98962.78;5092199;28;20212;-57
2021/12/05 04:15:49;;;;;;;20.57;12.73;;;;;;;8.36;89.98;98953.47;5090802;28;20193;-56
2021/12/05 04:18:17;;;;;;;28.27;12.77;;;;;;;8.30;90.15;98959.34;5091604;28;20677;-56
2021/12/05 04:20:44;;;;;;;26.07;12.87;;;;;;;8.19;90.57;98966.81;5091896;28;20190;-56
2021/12/05 04:23:11;;;;;;;28.93;12.60;;;;;;;8.10;91.26;98958.16;5091745;28;20194;-57
2021/12/05 04:25:39;;;;;;;28.83;14.47;;;;;;;8.06;91.31;98951.25;5091505;28;20313;-57
2021/12/05 04:28:07;;;;;;;33.03;13.80;;;;;;;8.34;91.36;98985.88;5091424;28;20201;-57
2021/12/05 04:30:34;;;;;;;35.13;15.30;;;;;;;8.30;91.33;98982.38;5091551;28;20190;-57
2021/12/05 04:33:01;;;;;;;36.13;14.90;;;;;;;8.38;91.08;98978.25;5091529;28;20225;-57
2021/12/05 04:35:30;;;;;;;31.50;13.93;;;;;;;8.40;90.45;98980.88;5091344;28;20193;-57
2021/12/05 04:37:57;;;;;;;31.63;14.93;;;;;;;8.33;90.62;98964.53;5091401;28;20196;-57
2021/12/05 04:40:24;;;;;;;32.33;14.00;;;;;;;8.35;90.71;98959.44;5091490;28;20664;-57
2021/12/05 04:42:51;;;;;;;32.93;14.30;;;;;;;8.39;90.57;98961.22;5091233;28;20204;-57
2021/12/05 04:45:20;;;;;;;30.17;14.20;;;;;;;8.47;90.31;98975.84;5091448;28;20577;-63
2021/12/05 04:47:48;;;;;;;31.87;13.73;;;;;;;8.53;89.90;98970.84;5091355;28;20577;-61
2021/12/05 04:50:16;;;;;;;31.20;13.40;;;;;;;8.58;89.66;98968.34;5091166;28;20561;-61
2021/12/05 04:52:44;;;;;;;35.73;15.00;;;;;;;8.61;89.50;98971.81;5090869;28;20235;-62
2021/12/05 04:55:12;;;;;;;29.00;13.93;;;;;;;8.66;88.82;98971.88;5091146;28;20192;-60
2021/12/05 04:57:41;;;;;;;27.87;13.87;;;;;;;8.70;88.88;98974.53;5091254;28;20193;-62
2021/12/05 05:00:12;;;;;;;26.73;12.90;;;;;;;8.67;88.74;98991.53;5091140;28;20648;-62
2021/12/05 05:02:40;;;;;;;27.67;12.53;;;;;;;8.69;88.40;98990.72;5091470;28;20580;-61
2021/12/05 05:05:08;;;;;;;25.43;12.90;;;;;;;8.66;88.53;98993.22;5091105;28;20239;-62
2021/12/05 05:07:37;;;;;;;30.63;14.17;;;;;;;8.70;88.40;98995.03;5090905;28;20567;-61
2021/12/05 05:10:10;;;;;;;25.57;12.50;;;;;;;8.74;88.16;98993.34;5087648;28;20202;-61
2021/12/05 05:12:37;;;;;;;26.67;12.03;;;;;;;8.77;88.05;98996.81;5079220;28;20214;-60
2021/12/05 05:15:05;;;;;;;26.70;12.33;;;;;;;8.77;87.91;99006.19;5070619;28;20202;-60
2021/12/05 05:17:33;;;;;;;25.97;12.07;;;;;;;8.80;88.34;99001.13;5070684;28;20191;-61
2021/12/05 05:20:04;;;;;;;22.57;11.73;;;;;;;8.83;87.84;99012.28;5070369;28;20183;-60
2021/12/05 05:22:40;;;;;;;27.90;12.93;;;;;;;8.83;87.75;99016.53;5070829;28;20305;-62
2021/12/05 05:25:39;;;;;;;29.70;14.03;;;;;;;8.85;87.51;99019.97;5070340;28;20198;-61
2021/12/05 05:44:43;;;;;;;18.97;11.07;;;;;;;8.84;86.93;99019.13;5052672;28;20681;-60
2021/12/05 05:47:13;;;;;;;22.57;11.73;;;;;;;8.82;86.75;99014.81;5090463;28;20214;-60
2021/12/05 05:49:56;;;;;;;22.17;10.17;;;;;;;8.75;87.02;99005.31;5090216;28;20183;-61
2021/12/05 05:52:23;;;;;;;25.83;11.90;;;;;;;8.76;87.44;99005.34;5090191;28;20225;-62
2021/12/05 05:54:51;;;;;;;23.17;12.80;;;;;;;8.81;87.51;99010.53;5089550;28;20214;-61
2021/12/05 05:57:25;;;;;;;24.30;11.50;;;;;;;8.76;87.40;99015.56;5090317;28;20330;-61
2021/12/05 05:59:58;;;;;;;18.50;11.23;;;;;;;8.84;87.08;99019.13;5090006;28;20195;-61
2021/12/05 06:05:11;;;;;;;25.17;11.30;;;;;;;8.84;87.23;99024.25;5090242;28;20181;-60
2021/12/05 06:07:42;;;;;;;21.07;11.43;;;;;;;8.73;87.15;98999.31;5090387;28;20202;-60
2021/12/05 06:10:10;;;;;;;20.00;11.53;;;;;;;8.86;87.12;99017.47;5089914;28;20192;-59
2021/12/05 06:12:39;;;;;;;18.57;11.23;;;;;;;8.82;87.44;99020.81;5090216;28;20283;-60
2021/12/05 06:15:08;;;;;;;22.63;10.73;;;;;;;8.87;87.20;99021.72;5089992;28;20199;-60
2021/12/05 06:17:36;;;;;;;24.13;10.97;;;;;;;8.87;86.84;99023.44;5089923;28;20193;-60
2021/12/05 06:20:06;;;;;;;21.83;12.43;;;;;;;8.85;87.55;99035.34;5090007;28;20196;-60
2021/12/05 06:22:33;;;;;;;26.47;12.40;;;;;;;8.88;87.20;99041.41;5090221;28;20192;-61
2021/12/05 06:25:00;;;;;;;25.80;13.07;;;;;;;8.95;87.09;99049.19;5089910;28;20187;-60
2021/12/05 06:27:28;;;;;;;24.60;13.50;;;;;;;8.97;87.14;99055.19;5089978;28;20266;-60
2021/12/05 06:30:05;;;;;;;27.43;14.33;;;;;;;8.99;87.08;99049.25;5089747;28;20193;-60
2021/12/05 06:38:10;;;;;;;32.63;14.13;;;;;;;9.10;86.66;99052.81;5089881;28;20258;-60
2021/12/05 06:41:03;;;;;;;29.13;13.70;;;;;;;9.18;86.40;99061.50;5093451;28;20635;-60
2021/12/05 06:46:27;;;;;;;31.77;14.77;;;;;;;9.22;85.99;99058.16;5068912;28;20185;-60
2021/12/05 06:48:54;;;;;;;36.93;18.67;;;;;;;9.19;86.05;99057.22;5093401;28;20190;-60
2021/12/05 06:51:23;;;;;;;37.37;18.27;;;;;;;9.18;86.12;99056.34;5093764;28;20277;-61
2021/12/05 06:53:50;;;;;;;32.57;15.00;;;;;;;9.23;85.55;99061.56;5093115;28;20219;-60
2021/12/05 06:56:18;;;;;;;35.10;14.23;;;;;;;9.22;85.96;99073.53;5093288;28;20200;-60
2021/12/05 06:58:45;;;;;;;29.63;14.00;;;;;;;9.25;85.90;99081.25;5092710;28;20182;-61
2021/12/05 07:01:13;;;;;;;31.50;14.10;;;;;;;9.28;85.62;99072.75;5093267;28;20200;-61
2021/12/05 07:03:45;;;;;;;45.97;19.08;;;;;;;9.27;85.72;99060.75;5092287;28;21302;-60
2021/12/05 07:06:19;;;;;;;36.43;16.90;;;;;;;9.31;86.00;99063.38;5093136;28;20244;-60
2021/12/05 07:08:47;;;;;;;36.27;16.97;;;;;;;9.38;85.89;99083.16;5093289;28;20225;-60
2021/12/05 07:11:20;;;;;;;36.53;15.43;;;;;;;9.30;85.30;99073.63;5092956;28;20739;-60
2021/12/05 07:16:37;;;;;;;42.27;17.53;;;;;;;9.37;85.36;99072.84;5085674;28;20671;-62
2021/12/05 07:21:55;;;;;;;38.30;17.57;;;;;;;9.38;85.16;99057.50;5089268;28;20197;-61
2021/12/05 07:24:37;;;;;;;42.67;18.77;;;;;;;9.44;84.92;99060.16;5092737;28;20186;-61
2021/12/05 07:40:56;;;;;;;43.83;18.43;;;;;;;9.63;84.52;99062.97;5092524;28;20622;-61
2021/12/05 07:43:23;;;;;;;46.77;19.53;;;;;;;9.62;84.50;99056.09;5092598;28;20218;-61
2021/12/05 07:45:54;;;;;;;41.17;18.60;;;;;;;9.68;84.53;99056.19;5092558;28;20274;-60
2021/12/05 07:48:26;;;;;;;38.10;19.17;;;;;;;9.77;84.44;99049.47;5092257;28;20573;-61
2021/12/05 07:51:09;;;;;;;41.73;18.77;;;;;;;9.88;84.02;99057.31;5092126;28;20611;-61
2021/12/05 07:53:45;;;;;;;46.43;21.37;;;;;;;9.90;83.77;99056.47;5091204;28;20252;-61
2021/12/05 07:56:17;;;;;;;56.53;25.45;;;;;;;9.97;83.92;99062.56;5091463;28;20470;-60
2021/12/05 08:15:12;;;;;;;39.73;20.03;;;;;;;9.95;83.62;99059.94;5091771;28;20220;-61
2021/12/05 08:17:39;;;;;;;40.57;20.00;;;;;;;10.09;83.41;99063.53;5091636;28;20319;-61
2021/12/05 08:20:10;;;;;;;46.80;22.40;;;;;;;10.02;82.77;99056.63;5091655;28;20285;-61
2021/12/05 08:22:38;;;;;;;41.43;22.07;;;;;;;10.00;82.67;99057.44;5091925;28;20225;-61
2021/12/05 08:25:10;;;;;;;38.73;20.60;;;;;;;10.12;83.02;99061.84;5091722;28;20190;-61
2021/12/05 08:27:40;;;;;;;46.10;24.57;;;;;;;10.20;82.89;99055.13;5091079;28;20241;-61
2021/12/05 08:30:11;;;;;;;44.37;22.73;;;;;;;10.33;82.14;99057.00;5091991;28;20198;-61
2021/12/05 08:32:51;;;;;;;44.13;21.57;;;;;;;10.37;81.74;99044.19;5091200;28;20251;-60
2021/12/05 08:35:38;;;;;;;46.00;22.87;;;;;;;10.27;81.28;99049.22;5091152;28;20218;-61
2021/12/05 08:43:55;;;;;;;59.87;24.27;;;;;;;10.39;81.49;99045.03;5070450;28;20183;-61
2021/12/05 09:31:16;;;;;;;54.73;29.57;;;;;;;10.42;81.84;99032.25;5106748;28;20573;-61
2021/12/05 10:01:57;;;;;;;64.00;36.93;;;;;;;10.93;78.89;98984.69;5054102;28;20559;-58
2021/12/05 10:07:23;;;;;;;64.07;35.87;;;;;;;10.90;78.63;98975.25;5127376;28;20201;-57
2021/12/05 10:10:14;;;;;;;58.27;35.73;;;;;;;11.00;78.76;98969.31;5127514;28;20190;-57
2021/12/05 10:13:01;;;;;;;67.13;36.77;;;;;;;11.17;78.15;98964.28;5112735;28;20198;-57
2021/12/05 10:15:42;;;;;;;56.27;33.33;;;;;;;11.17;77.88;98969.41;5107164;28;21028;-57
2021/12/05 10:18:56;;;;;;;58.20;33.17;;;;;;;11.30;78.05;98971.19;5106745;28;20197;-57
2021/12/05 10:35:50;;;;;;;57.70;33.17;;;;;;;10.93;79.09;98961.56;5107008;28;20767;-58
2021/12/05 10:38:20;;;;;;;53.27;28.93;;;;;;;10.98;78.41;98955.59;5100273;28;20194;-58
2021/12/05 10:40:56;;;;;;;48.57;28.67;;;;;;;10.94;79.07;98959.00;5092845;28;20665;-58
2021/12/05 10:43:25;;;;;;;48.20;27.73;;;;;;;10.87;78.75;98951.25;5092599;28;20197;-58
2021/12/05 10:45:56;;;;;;;43.83;27.20;;;;;;;10.70;79.94;98946.00;5092817;28;20194;-58
2021/12/05 10:48:26;;;;;;;45.03;25.70;;;;;;;10.85;78.83;98940.94;5092972;28;20187;-58
2021/12/05 10:50:57;;;;;;;37.00;23.13;;;;;;;10.95;78.79;98927.31;5092955;28;20186;-58
2021/12/05 10:53:33;;;;;;;44.07;25.73;;;;;;;11.18;77.86;98925.69;5089424;28;20210;-58
2021/12/05 10:56:20;;;;;;;41.63;25.47;;;;;;;11.19;78.27;98906.00;5090054;28;20273;-58
2021/12/05 10:58:51;;;;;;;42.47;26.17;;;;;;;11.34;78.17;98898.34;5092325;28;20199;-57
2021/12/05 11:01:27;;;;;;;44.00;23.90;;;;;;;11.33;77.58;98899.19;5092983;28;20206;-58
2021/12/05 11:03:58;;;;;;;36.37;25.13;;;;;;;11.24;78.15;98912.88;5096765;28;20193;-58
2021/12/05 11:06:36;;;;;;;35.83;24.60;;;;;;;11.29;78.03;98902.59;5087809;28;20703;-58
2021/12/05 11:09:07;;;;;;;37.57;23.67;;;;;;;11.20;78.19;98902.59;5076748;28;20203;-58
2021/12/05 11:11:35;;;;;;;35.97;22.77;;;;;;;10.95;78.54;98901.59;5072156;28;20685;-58
2021/12/05 11:14:03;;;;;;;31.90;22.40;;;;;;;11.25;78.20;98893.16;5084133;28;20703;-58
2021/12/05 11:16:43;;;;;;;40.00;23.93;;;;;;;11.30;77.30;98888.91;5092096;28;20191;-57
2021/12/05 11:19:21;;;;;;;43.53;27.23;;;;;;;11.42;77.57;98893.22;5092468;28;20552;-57
2021/12/05 11:21:54;;;;;;;42.27;25.43;;;;;;;11.40;77.00;98892.38;5092088;28;20741;-57
2021/12/05 11:24:24;;;;;;;43.50;25.07;;;;;;;11.36;76.92;98878.63;5092503;28;20557;-57
2021/12/05 11:27:16;;;;;;;39.73;25.07;;;;;;;11.48;77.31;98881.22;5091874;28;20226;-57
2021/12/05 11:30:10;;;;;;;44.13;25.87;;;;;;;11.60;75.84;98890.69;5089514;28;20198;-57
2021/12/05 11:32:40;;;;;;;43.43;26.60;;;;;;;11.75;75.00;98883.06;5085746;28;20191;-59
2021/12/05 11:35:18;;;;;;;39.47;25.87;;;;;;;11.75;74.09;98877.91;5091699;28;20193;-57
2021/12/05 11:37:53;;;;;;;43.00;26.90;;;;;;;11.82;74.56;98892.50;5091893;28;20197;-56
2021/12/05 11:40:21;;;;;;;40.67;27.20;;;;;;;11.84;74.44;98898.50;5091938;28;20584;-56
2021/12/05 11:42:53;;;;;;;44.08;30.95;;;;;;;11.70;74.42;98859.88;5090637;28;20436;-58
2021/12/05 11:45:20;;;;;;;41.63;27.73;;;;;;;11.94;74.21;98889.94;5091967;28;20194;-57
2021/12/05 11:47:47;;;;;;;45.47;27.90;;;;;;;11.95;73.79;98890.81;5091689;28;20574;-57
2021/12/05 11:50:18;;;;;;;40.10;26.93;;;;;;;11.97;73.94;98882.22;5090614;28;20200;-57
2021/12/05 11:52:48;;;;;;;38.53;26.33;;;;;;;12.04;74.11;98878.78;5091703;28;20206;-57
2021/12/05 11:55:24;;;;;;;40.73;27.30;;;;;;;11.88;74.03;98874.50;5091476;28;20191;-57
2021/12/05 11:57:51;;;;;;;41.10;26.47;;;;;;;11.95;74.20;98873.63;5091652;28;20269;-57
2021/12/05 12:00:21;;;;;;;44.07;26.13;;;;;;;12.00;74.06;98863.34;5091819;28;20195;-57
2021/12/05 12:02:50;;;;;;;43.70;28.58;;;;;;;11.53;75.85;98860.69;5091361;28;20429;-57
2021/12/05 12:05:20;;;;;;;54.13;30.17;;;;;;;11.39;76.53;98854.63;5091423;28;20195;-57
2021/12/05 12:07:49;;;;;;;47.63;29.10;;;;;;;11.28;77.47;98864.91;5091568;28;20593;-57
2021/12/05 12:10:19;;;;;;;39.60;28.07;;;;;;;11.45;77.19;98863.25;5091658;28;20197;-58
2021/12/05 12:12:52;;;;;;;38.00;25.77;;;;;;;11.46;76.95;98858.94;5091496;28;20193;-58
2021/12/05 12:15:21;;;;;;;48.60;28.13;;;;;;;11.50;76.74;98852.94;5091143;28;20194;-58
2021/12/05 12:17:49;;;;;;;41.53;28.60;;;;;;;11.46;76.29;98833.22;5091004;28;20186;-58
2021/12/05 12:20:21;;;;;;;43.53;28.77;;;;;;;11.55;76.60;98856.38;5091015;28;20195;-58
2021/12/05 12:22:49;;;;;;;42.53;27.57;;;;;;;11.63;76.77;98852.13;5091078;28;20191;-58
2021/12/05 12:25:21;;;;;;;38.07;25.23;;;;;;;11.47;76.78;98851.22;5090984;28;20204;-58
2021/12/05 12:27:50;;;;;;;37.87;26.57;;;;;;;11.28;77.65;98849.47;5090646;28;20238;-58
2021/12/05 12:30:24;;;;;;;41.60;23.20;;;;;;;11.11;77.97;98841.69;5090532;28;20202;-58
2021/12/05 12:32:54;;;;;;;36.77;23.70;;;;;;;11.05;77.89;98828.81;5090175;28;20183;-58
2021/12/05 12:35:27;;;;;;;35.30;24.03;;;;;;;11.19;78.28;98837.44;5095722;28;20201;-58
2021/12/05 12:37:57;;;;;;;38.73;24.70;;;;;;;11.29;78.49;98829.75;5111310;28;20203;-58
2021/12/05 12:40:44;;;;;;;35.50;22.23;;;;;;;11.41;78.14;98827.19;5111251;28;20204;-58
2021/12/05 12:43:49;;;;;;;37.90;23.07;;;;;;;11.47;77.37;98834.94;5081281;28;20204;-57
2021/12/05 12:46:21;;;;;;;34.17;21.70;;;;;;;11.41;77.44;98833.22;5076607;28;20661;-57
2021/12/05 12:48:49;;;;;;;38.07;24.20;;;;;;;11.32;77.52;98842.63;5081407;28;20215;-57
2021/12/05 12:51:28;;;;;;;38.53;23.60;;;;;;;11.42;77.47;98839.22;5090688;28;20198;-57
2021/12/05 12:53:57;;;;;;;34.20;22.00;;;;;;;11.33;77.63;98844.31;5090535;28;20197;-57
2021/12/05 12:56:24;;;;;;;36.17;19.97;;;;;;;11.03;78.55;98843.38;5092697;28;20186;-57
2021/12/05 12:58:57;;;;;;;34.07;22.73;;;;;;;11.19;78.22;98841.72;5097862;28;20511;-57
2021/12/05 13:01:42;;;;;;;31.93;20.37;;;;;;;11.20;77.44;98838.31;5106393;28;20218;-57
2021/12/05 13:10:09;;;;;;;29.50;19.37;;;;;;;11.26;77.55;98843.47;5026710;28;20228;-57
2021/12/05 13:13:03;;;;;;;28.37;18.90;;;;;;;11.02;77.83;98844.22;5058926;28;20206;-57
2021/12/05 13:15:35;;;;;;;28.37;19.20;;;;;;;11.06;78.46;98843.41;5068177;28;20325;-57
2021/12/05 13:18:18;;;;;;;26.27;18.67;;;;;;;11.12;78.20;98855.41;5069934;28;20213;-58
2021/12/05 13:20:52;;;;;;;29.17;19.73;;;;;;;11.16;77.77;98852.84;5069177;28;20227;-57
2021/12/05 13:23:26;;;;;;;33.10;20.53;;;;;;;11.14;78.01;98848.56;5069238;28;20187;-57
2021/12/05 13:26:19;;;;;;;33.27;21.70;;;;;;;10.96;79.05;98831.34;5069435;28;20199;-57
2021/12/05 13:28:50;;;;;;;32.43;21.73;;;;;;;10.95;79.25;98842.50;5069390;28;20261;-57
2021/12/05 13:31:41;;;;;;;38.40;23.13;;;;;;;10.80;79.38;98834.69;5069629;28;20223;-57
2021/12/05 13:34:33;;;;;;;36.30;23.47;;;;;;;10.53;80.20;98821.72;5069699;28;20284;-57
2021/12/05 13:37:22;;;;;;;37.37;23.27;;;;;;;10.47;81.08;98819.97;5069755;28;20282;-57
2021/12/05 13:39:52;;;;;;;39.43;24.17;;;;;;;10.48;81.38;98828.53;5069807;28;20207;-57
2021/12/05 13:42:23;;;;;;;41.90;27.33;;;;;;;10.55;81.82;98838.00;5070141;28;20195;-57
2021/12/05 13:45:15;;;;;;;45.00;27.70;;;;;;;10.57;81.34;98846.59;5069404;28;20192;-57
2021/12/05 13:47:48;;;;;;;50.03;33.83;;;;;;;10.54;81.16;98838.88;5067181;28;20296;-57
2021/12/05 13:50:31;;;;;;;49.40;34.43;;;;;;;10.55;81.76;98844.00;5069554;28;20228;-57
2021/12/05 13:53:16;;;;;;;51.33;35.90;;;;;;;10.60;81.22;98850.00;5069376;28;20278;-57
2021/12/05 13:55:45;;;;;;;51.23;33.83;;;;;;;10.66;81.21;98841.47;5069088;28;20291;-57
2021/12/05 13:58:21;;;;;;;50.17;33.47;;;;;;;10.63;81.23;98833.75;5069199;28;20201;-57
2021/12/05 14:00:53;;;;;;;48.77;32.47;;;;;;;10.53;81.34;98842.28;5069087;28;20273;-57
2021/12/05 14:03:52;;;;;;;59.07;37.90;;;;;;;10.44;81.98;98829.38;5069153;28;20286;-59
2021/12/05 14:06:28;;;;;;;51.87;34.47;;;;;;;10.38;82.61;98826.78;5069040;28;20205;-57
2021/12/05 14:08:57;;;;;;;48.57;31.60;;;;;;;10.26;83.04;98827.56;5085916;28;20217;-57
2021/12/05 14:11:24;;;;;;;42.63;27.47;;;;;;;10.19;83.31;98833.47;5096166;28;20559;-58
2021/12/05 14:13:51;;;;;;;52.93;37.33;;;;;;;10.20;83.77;98837.78;5111817;28;20676;-57
2021/12/05 14:16:18;;;;;;;51.17;36.93;;;;;;;10.22;83.83;98842.94;5113188;28;20427;-58
2021/12/05 14:18:47;;;;;;;48.80;34.00;;;;;;;10.29;83.66;98837.84;5104314;28;20568;-57
2021/12/05 14:21:15;;;;;;;54.47;36.87;;;;;;;10.29;83.43;98842.13;5113459;28;20192;-58
2021/12/05 14:23:48;;;;;;;50.67;35.90;;;;;;;10.31;83.51;98838.72;5113501;28;20716;-58
2021/12/05 14:26:16;;;;;;;44.40;32.77;;;;;;;10.23;83.86;98834.38;5107275;28;20234;-59
2021/12/05 14:28:43;;;;;;;45.77;31.63;;;;;;;10.30;83.06;98839.56;5112032;28;20218;-57
2021/12/05 14:31:10;;;;;;;41.73;27.97;;;;;;;10.29;83.74;98842.13;5113128;28;20194;-57
2021/12/05 14:33:50;;;;;;;41.60;28.20;;;;;;;10.30;82.71;98838.72;5113087;28;20201;-57
2021/12/05 14:36:24;;;;;;;43.13;29.60;;;;;;;10.18;83.73;98843.75;5113679;28;20212;-57
2021/12/05 14:39:07;;;;;;;46.30;30.47;;;;;;;10.13;84.31;98848.88;5113370;28;20189;-57
2021/12/05 14:41:34;;;;;;;44.70;30.53;;;;;;;9.90;84.39;98811.84;5113414;28;20197;-58
2021/12/05 14:44:01;;;;;;;45.40;30.60;;;;;;;10.03;84.06;98822.22;5102561;28;20668;-58
2021/12/05 14:46:28;;;;;;;44.57;31.77;;;;;;;10.16;84.10;98848.03;5103596;28;20243;-58
2021/12/05 14:48:58;;;;;;;48.97;31.63;;;;;;;10.18;83.86;98849.75;5078617;28;20215;-57
2021/12/05 14:51:36;;;;;;;48.00;30.00;;;;;;;10.18;83.90;98851.44;5075066;28;20271;-57
2021/12/05 14:54:05;;;;;;;42.27;27.60;;;;;;;10.20;84.38;98845.47;5072424;28;20667;-57
2021/12/05 14:56:34;;;;;;;59.87;36.00;;;;;;;10.17;84.64;98845.47;5072762;28;20648;-57
2021/12/05 14:59:06;;;;;;;81.10;46.80;;;;;;;10.14;84.42;98844.56;5072482;28;20187;-58
2021/12/05 15:01:34;;;;;;;55.20;35.23;;;;;;;10.19;84.45;98853.19;5080145;28;20187;-58
2021/12/05 15:04:05;;;;;;;54.87;34.40;;;;;;;10.26;84.74;98853.22;5082792;28;20693;-58
2021/12/05 15:06:35;;;;;;;60.33;35.30;;;;;;;10.26;84.38;98855.81;5083727;28;20229;-58
2021/12/05 15:09:06;;;;;;;56.00;35.23;;;;;;;10.30;84.41;98861.81;5074684;28;20256;-57
2021/12/05 15:11:33;;;;;;;59.10;36.47;;;;;;;10.34;84.40;98868.69;5080140;28;20558;-57
2021/12/05 15:14:05;;;;;;;63.03;40.10;;;;;;;10.18;84.61;98872.00;5090041;28;20204;-57
2021/12/05 15:16:32;;;;;;;78.37;52.03;;;;;;;10.24;84.08;98875.47;5092192;28;20190;-58
2021/12/05 15:18:59;;;;;;;82.10;51.73;;;;;;;10.20;84.61;98877.97;5096494;28;20194;-59
2021/12/05 15:21:30;;;;;;;73.37;48.40;;;;;;;10.15;84.51;98871.97;5091163;28;20328;-58
2021/12/05 15:23:57;;;;;;;70.20;50.30;;;;;;;10.24;84.46;98874.59;5083054;28;20187;-58
2021/12/05 15:26:32;;;;;;;72.27;49.70;;;;;;;10.31;84.13;98878.94;5081453;28;20309;-56
2021/12/05 15:29:03;;;;;;;93.47;56.30;;;;;;;10.28;84.40;98884.91;5082722;28;20638;-58
2021/12/05 15:31:36;;;;;;;87.73;56.30;;;;;;;10.29;84.61;98881.50;5082190;28;20199;-58
2021/12/05 15:34:17;;;;;;;86.30;51.93;;;;;;;10.27;84.52;98887.47;5082092;28;20201;-58
2021/12/05 15:36:45;;;;;;;72.37;50.80;;;;;;;10.23;84.52;98881.44;5081307;28;20278;-57
2021/12/05 15:39:19;;;;;;;78.80;51.47;;;;;;;10.14;85.16;98872.78;5080895;28;20187;-58
2021/12/05 15:41:46;;;;;;;75.77;49.97;;;;;;;10.13;84.88;98876.22;5082132;28;20182;-58
2021/12/05 15:44:24;;;;;;;70.77;45.80;;;;;;;10.09;85.32;98876.16;5081796;28;20697;-58
2021/12/05 15:46:51;;;;;;;73.67;46.40;;;;;;;10.01;86.03;98874.38;5088839;28;20194;-58
2021/12/05 15:49:18;;;;;;;79.80;50.70;;;;;;;10.01;85.74;98882.09;5088116;28;20215;-58
2021/12/05 15:51:48;;;;;;;77.03;49.60;;;;;;;10.06;85.81;98893.25;5079786;28;20277;-57
2021/12/05 15:54:15;;;;;;;93.63;66.93;;;;;;;10.12;86.18;98889.88;5078900;28;20439;-57
2021/12/05 15:56:43;;;;;;;81.23;57.10;;;;;;;10.12;85.17;98875.34;5081784;28;20193;-56
2021/12/05 15:59:17;;;;;;;84.03;55.53;;;;;;;10.08;85.24;98883.84;5080657;28;20198;-56
2021/12/05 16:01:44;;;;;;;82.97;55.77;;;;;;;10.04;85.14;98882.13;5079553;28;20183;-57